createdAt,value
2019-05-11T00:01:02.126Z,4.90
2019-05-11T00:03:30.083Z,5.50
2019-05-11T00:05:57.778Z,5.03
2019-05-11T00:08:25.629Z,5.00
2019-05-11T00:10:53.323Z,5.12
2019-05-11T00:13:21.181Z,5.67
2019-05-11T00:15:48.780Z,4.62
2019-05-11T00:18:16.532Z,4.45
2019-05-11T00:20:44.309Z,5.70
2019-05-11T00:23:11.991Z,6.10
2019-05-11T00:25:39.779Z,6.40
2019-05-11T00:28:08.393Z,5.95
2019-05-11T00:30:36.227Z,5.90
2019-05-11T00:33:03.917Z,5.75
2019-05-11T00:35:31.814Z,6.30
2019-05-11T00:37:59.535Z,5.72
2019-05-11T00:40:27.378Z,5.70
2019-05-11T00:42:55.073Z,6.03
2019-05-11T00:45:22.825Z,6.00
2019-05-11T00:47:50.718Z,6.40
2019-05-11T00:50:18.706Z,6.30
2019-05-11T00:52:46.406Z,5.25
2019-05-11T00:55:14.138Z,5.45
2019-05-11T00:57:41.834Z,5.12
2019-05-11T01:00:09.619Z,5.08
2019-05-11T01:02:37.989Z,5.30
2019-05-11T01:05:05.935Z,5.30
2019-05-11T01:07:34.103Z,5.15
2019-05-11T01:10:02.041Z,5.10
2019-05-11T01:12:31.470Z,4.30
2019-05-11T01:14:59.185Z,4.90
2019-05-11T01:17:26.810Z,4.50
2019-05-11T01:19:54.491Z,4.78
2019-05-11T01:22:22.249Z,4.33
2019-05-11T01:24:49.922Z,4.42
2019-05-11T01:27:17.705Z,4.78
2019-05-11T01:29:45.469Z,4.45
2019-05-11T01:32:13.221Z,4.80
2019-05-11T01:34:41.002Z,4.65
2019-05-11T01:37:08.753Z,5.10
2019-05-11T01:39:36.446Z,5.15
2019-05-11T01:42:04.226Z,4.62
2019-05-11T01:44:31.924Z,4.87
2019-05-11T01:46:59.734Z,5.92
2019-05-11T01:49:27.390Z,4.95
2019-05-11T01:51:55.253Z,6.95
2019-05-11T01:54:22.929Z,5.30
2019-05-11T01:56:50.612Z,5.22
2019-05-11T01:59:18.280Z,4.65
2019-05-11T02:01:45.922Z,5.53
2019-05-11T02:04:13.604Z,4.60
2019-05-11T02:06:41.313Z,5.05
2019-05-11T02:09:09.161Z,5.53
2019-05-11T02:11:37.016Z,4.92
2019-05-11T02:14:04.589Z,4.62
2019-05-11T02:16:32.274Z,3.80
2019-05-11T02:19:00.230Z,3.60
2019-05-11T02:21:28.005Z,4.35
2019-05-11T02:23:55.875Z,3.10
2019-05-11T02:26:23.638Z,3.50
2019-05-11T02:28:51.478Z,3.35
2019-05-11T02:31:19.139Z,3.42
2019-05-11T02:33:46.894Z,3.70
2019-05-11T02:36:14.560Z,4.20
2019-05-11T02:38:42.309Z,3.70
2019-05-11T02:41:10.003Z,3.62
2019-05-11T02:43:37.766Z,3.45
2019-05-11T02:46:05.470Z,3.42
2019-05-11T02:48:33.816Z,3.52
2019-05-11T02:51:02.279Z,2.62
2019-05-11T02:53:31.497Z,3.40
2019-05-11T02:56:00.637Z,3.35
2019-05-11T02:58:28.908Z,3.60
2019-05-11T03:00:56.684Z,3.60
2019-05-11T03:03:24.367Z,3.12
2019-05-11T03:05:52.120Z,3.10
2019-05-11T03:08:19.923Z,3.40
2019-05-11T03:10:47.649Z,3.20
2019-05-11T03:13:15.460Z,2.90
2019-05-11T03:15:43.324Z,3.30
2019-05-11T03:18:11.084Z,2.60
2019-05-11T03:20:38.947Z,2.60
2019-05-11T03:23:06.532Z,2.50
2019-05-11T03:25:34.461Z,2.45
2019-05-11T03:28:02.199Z,2.75
2019-05-11T03:30:30.033Z,2.52
2019-05-11T03:32:57.605Z,2.45
2019-05-11T03:35:25.384Z,2.35
2019-05-11T03:37:53.174Z,2.42
2019-05-11T03:40:20.951Z,2.10
2019-05-11T03:42:48.639Z,2.33
2019-05-11T03:45:16.435Z,2.20
2019-05-11T03:47:44.226Z,2.33
2019-05-11T03:50:12.575Z,2.40
2019-05-11T03:52:40.770Z,2.20
2019-05-11T03:55:08.758Z,2.00
2019-05-11T03:57:36.917Z,2.25
2019-05-11T04:00:04.976Z,1.82
2019-05-11T04:02:33.592Z,2.47
2019-05-11T04:05:01.307Z,2.02
2019-05-11T04:07:30.674Z,2.10
2019-05-11T04:09:58.344Z,2.02
2019-05-11T04:12:35.004Z,2.05
2019-05-11T04:14:55.658Z,2.02
2019-05-11T04:17:23.514Z,2.10
2019-05-11T04:19:51.190Z,1.98
2019-05-11T04:22:19.035Z,2.37
2019-05-11T04:24:46.719Z,2.20
2019-05-11T04:27:19.192Z,2.02
2019-05-11T04:29:44.456Z,1.85
2019-05-11T04:32:12.218Z,1.90
2019-05-11T04:34:39.904Z,1.87
2019-05-11T04:37:07.552Z,2.30
2019-05-11T04:39:35.200Z,1.95
2019-05-11T04:42:03.130Z,1.75
2019-05-11T04:44:30.794Z,2.00
2019-05-11T04:46:58.523Z,1.90
2019-05-11T04:49:26.287Z,1.92
2019-05-11T04:51:54.099Z,2.30
2019-05-11T04:54:21.787Z,2.02
2019-05-11T04:56:49.570Z,2.10
2019-05-11T04:59:17.229Z,2.47
2019-05-11T05:01:44.993Z,2.27
2019-05-11T05:04:14.350Z,2.05
2019-05-11T05:06:42.170Z,2.20
2019-05-11T05:09:10.062Z,2.00
2019-05-11T05:11:38.496Z,1.87
2019-05-11T05:14:08.119Z,2.10
2019-05-11T05:16:36.057Z,1.90
2019-05-11T05:19:03.811Z,1.85
2019-05-11T05:21:31.658Z,2.10
2019-05-11T05:23:59.406Z,2.00
2019-05-11T05:26:27.093Z,2.35
2019-05-11T05:28:54.908Z,2.00
2019-05-11T05:31:22.475Z,2.00
2019-05-11T05:33:50.250Z,2.20
2019-05-11T05:36:17.947Z,2.10
2019-05-11T05:38:45.719Z,1.80
2019-05-11T05:41:13.445Z,2.20
2019-05-11T05:43:41.384Z,2.02
2019-05-11T05:46:09.071Z,2.12
2019-05-11T05:48:36.651Z,2.10
2019-05-11T05:51:04.403Z,1.87
2019-05-11T05:53:32.154Z,1.70
2019-05-11T05:55:59.855Z,1.72
2019-05-11T05:58:27.570Z,2.42
2019-05-11T06:00:55.462Z,3.17
2019-05-11T06:03:23.153Z,2.12
2019-05-11T06:05:50.890Z,2.30
2019-05-11T06:08:18.655Z,1.95
2019-05-11T06:10:46.592Z,2.30
2019-05-11T06:13:14.368Z,2.25
2019-05-11T06:15:42.311Z,2.27
2019-05-11T06:18:10.369Z,2.08
2019-05-11T06:20:38.198Z,2.17
2019-05-11T06:23:05.893Z,2.00
2019-05-11T06:25:33.842Z,1.90
2019-05-11T06:28:01.553Z,2.30
2019-05-11T06:30:29.539Z,2.25
2019-05-11T06:32:57.221Z,2.15
2019-05-11T06:35:25.021Z,2.30
2019-05-11T06:37:52.911Z,2.02
2019-05-11T06:40:20.622Z,2.50
2019-05-11T06:42:48.385Z,1.80
2019-05-11T06:45:16.480Z,2.40
2019-05-11T06:47:44.337Z,2.17
2019-05-11T06:50:12.260Z,2.05
2019-05-11T06:52:40.349Z,2.10
2019-05-11T06:55:08.047Z,1.80
2019-05-11T06:57:36.234Z,2.25
2019-05-11T07:00:04.511Z,2.30
2019-05-11T07:02:32.975Z,2.00
2019-05-11T07:05:00.689Z,2.00
2019-05-11T07:07:28.493Z,2.42
2019-05-11T07:09:56.242Z,2.45
2019-05-11T07:12:27.175Z,2.00
2019-05-11T07:14:53.495Z,2.70
2019-05-11T07:17:21.242Z,2.42
2019-05-11T07:19:49.045Z,2.80
2019-05-11T07:22:16.837Z,2.90
2019-05-11T07:24:44.674Z,2.37
2019-05-11T07:27:12.283Z,2.30
2019-05-11T07:29:40.037Z,2.58
2019-05-11T07:32:19.634Z,2.37
2019-05-11T07:34:38.340Z,2.17
2019-05-11T07:37:08.261Z,2.65
2019-05-11T07:39:38.180Z,2.42
2019-05-11T07:42:07.641Z,2.55
2019-05-11T07:44:38.808Z,2.20
2019-05-11T07:47:05.077Z,2.95
2019-05-11T07:49:32.861Z,2.80
2019-05-11T07:52:00.568Z,2.20
2019-05-11T07:54:28.321Z,2.20
2019-05-11T07:56:58.331Z,2.20
2019-05-11T07:59:28.734Z,2.30
2019-05-11T08:01:58.158Z,2.25
2019-05-11T08:04:25.596Z,2.52
2019-05-11T08:06:53.287Z,2.10
2019-05-11T08:09:21.139Z,2.15
2019-05-11T08:11:48.922Z,2.10
2019-05-11T08:14:18.285Z,2.12
2019-05-11T08:16:48.024Z,2.17
2019-05-11T08:19:18.215Z,1.82
2019-05-11T08:21:45.465Z,1.70
2019-05-11T08:24:13.265Z,1.80
2019-05-11T08:26:40.968Z,1.60
2019-05-11T08:29:08.844Z,1.50
2019-05-11T08:31:38.554Z,1.62
2019-05-11T08:34:08.667Z,1.70
2019-05-11T08:36:37.846Z,1.92
2019-05-11T08:39:07.754Z,2.17
2019-05-11T08:41:38.226Z,1.55
2019-05-11T08:44:05.846Z,1.60
2019-05-11T08:46:33.666Z,1.70
2019-05-11T08:49:01.466Z,1.65
2019-05-11T08:51:29.349Z,1.67
2019-05-11T08:53:58.376Z,1.80
2019-05-11T08:56:28.738Z,1.40
2019-05-11T08:58:58.585Z,1.60
2019-05-11T09:01:25.825Z,1.50
2019-05-11T09:03:53.684Z,1.60
2019-05-11T09:06:21.432Z,1.75
2019-05-11T09:08:49.487Z,1.90
2019-05-11T09:11:19.043Z,1.55
2019-05-11T09:13:48.886Z,1.60
2019-05-11T09:16:19.109Z,1.40
2019-05-11T09:18:47.948Z,1.37
2019-05-11T09:21:16.033Z,1.52
2019-05-11T09:23:43.726Z,1.95
2019-05-11T09:26:11.599Z,1.50
2019-05-11T09:28:39.292Z,1.60
2019-05-11T09:31:08.570Z,1.12
2019-05-11T09:33:38.417Z,1.00
2019-05-11T09:36:08.344Z,1.40
2019-05-11T09:38:38.181Z,1.10
2019-05-11T09:41:08.085Z,1.17
2019-05-11T09:43:37.545Z,1.00
2019-05-11T09:46:04.968Z,1.20
2019-05-11T09:48:32.884Z,0.90
2019-05-11T09:51:00.579Z,1.00
2019-05-11T09:53:28.523Z,0.90
2019-05-11T09:55:58.507Z,1.00
2019-05-11T09:58:27.932Z,1.10
2019-05-11T10:00:55.458Z,0.90
2019-05-11T10:03:23.150Z,1.20
2019-05-11T10:05:50.854Z,0.90
2019-05-11T10:08:18.675Z,1.10
2019-05-11T10:10:48.644Z,1.00
2019-05-11T10:13:18.416Z,1.00
2019-05-11T10:16:00.040Z,0.90
2019-05-11T10:18:15.281Z,1.05
2019-05-11T10:20:43.019Z,0.90
2019-05-11T10:23:10.899Z,1.12
2019-05-11T10:25:39.199Z,0.82
2019-05-11T10:28:08.656Z,1.15
2019-05-11T10:30:38.597Z,0.90
2019-05-11T10:33:08.297Z,0.95
2019-05-11T10:35:37.818Z,1.00
2019-05-11T10:38:05.758Z,1.10
2019-05-11T10:40:33.558Z,1.10
2019-05-11T10:43:01.298Z,1.07
2019-05-11T11:40:31.531Z,1.10
2019-05-11T11:42:58.700Z,0.82
2019-05-11T11:45:31.069Z,0.90
2019-05-11T11:48:08.470Z,0.90
2019-05-11T11:51:00.886Z,1.20
2019-05-11T11:53:33.486Z,1.07
2019-05-11T11:56:19.075Z,1.40
2019-05-11T11:58:51.958Z,1.40
2019-05-11T12:01:24.716Z,1.00
2019-05-11T12:03:58.107Z,0.98
2019-05-11T12:06:28.213Z,1.07
2019-05-11T12:09:03.368Z,1.10
2019-05-11T12:11:38.989Z,0.90
2019-05-11T12:14:30.265Z,0.90
2019-05-11T12:17:08.691Z,0.98
2019-05-11T12:19:58.554Z,1.30
2019-05-11T12:22:38.520Z,0.90
2019-05-11T12:25:13.131Z,0.80
2019-05-11T12:27:43.878Z,1.00
2019-05-11T12:30:22.692Z,0.90
2019-05-11T12:33:14.756Z,1.00
2019-05-11T12:35:47.995Z,1.10
2019-05-11T12:38:19.650Z,0.90
2019-05-11T12:40:57.746Z,1.00
2019-05-11T12:43:35.641Z,0.80
2019-05-11T12:46:11.312Z,0.90
2019-05-11T12:48:59.210Z,0.80
2019-05-11T12:51:53.498Z,0.82
2019-05-11T12:54:13.094Z,0.70
2019-05-11T12:56:51.532Z,0.90
2019-05-11T12:59:27.721Z,0.80
2019-05-11T13:01:59.286Z,0.68
2019-05-11T13:04:38.443Z,0.90
2019-05-11T13:07:08.665Z,1.07
2019-05-11T13:09:48.275Z,1.00
2019-05-11T13:12:19.026Z,0.70
2019-05-11T13:14:58.009Z,0.93
2019-05-11T13:17:38.411Z,1.10
2019-05-11T13:20:14.565Z,1.05
2019-05-11T13:22:48.680Z,0.82
2019-05-11T13:28:51.421Z,1.10
2019-05-11T13:31:21.431Z,1.20
2019-05-11T13:33:52.678Z,1.00
2019-05-11T13:36:20.490Z,0.90
2019-05-11T13:38:48.596Z,0.90
2019-05-11T13:41:18.736Z,0.80
2019-05-11T13:43:48.345Z,0.80
2019-05-11T13:46:18.040Z,1.00
2019-05-11T14:07:13.704Z,0.80
2019-05-11T14:09:49.383Z,1.05
2019-05-11T14:12:22.102Z,0.85
2019-05-11T14:14:53.395Z,0.95
2019-05-11T14:17:31.971Z,0.90
2019-05-11T14:20:01.323Z,1.20
2019-05-11T14:22:33.983Z,1.10
2019-05-11T14:25:32.631Z,1.00
2019-05-11T14:31:41.825Z,1.05
2019-05-11T14:34:09.722Z,1.20
2019-05-11T14:36:38.777Z,1.30
2019-05-11T14:39:08.456Z,1.00
2019-05-11T14:41:38.000Z,1.02
2019-05-11T14:44:08.574Z,1.30
2019-05-11T14:46:38.214Z,1.40
2019-05-11T14:49:07.725Z,1.20
2019-05-11T14:51:35.251Z,1.05
2019-05-11T14:54:03.074Z,1.10
2019-05-11T14:56:33.978Z,0.90
2019-05-11T14:59:01.782Z,1.10
2019-05-11T15:01:29.515Z,1.02
2019-05-11T15:03:58.877Z,1.22
2019-05-11T15:06:27.911Z,1.05
2019-05-11T15:08:58.089Z,1.20
2019-05-11T15:11:25.556Z,1.20
2019-05-11T15:13:53.359Z,1.10
2019-05-11T15:16:21.167Z,1.30
2019-05-11T15:18:48.983Z,1.85
2019-05-11T15:21:18.659Z,1.77
2019-05-11T15:23:47.734Z,1.10
2019-05-11T15:26:15.714Z,1.40
2019-05-11T15:28:43.456Z,1.45
2019-05-11T15:31:11.248Z,1.20
2019-05-11T15:33:38.992Z,1.55
2019-05-11T15:36:07.622Z,1.62
2019-05-11T15:38:37.678Z,1.00
2019-05-11T15:41:05.165Z,1.02
2019-05-11T15:43:32.850Z,1.17
2019-05-11T15:46:00.694Z,1.00
2019-05-11T15:48:28.412Z,1.60
2019-05-11T15:50:57.780Z,2.10
2019-05-11T15:53:25.634Z,1.85
2019-05-11T15:55:53.418Z,2.12
2019-05-11T15:58:21.810Z,1.50
2019-05-11T16:00:49.624Z,1.55
2019-05-11T16:03:18.624Z,1.40
2019-05-11T16:05:47.921Z,1.80
2019-05-11T16:08:18.618Z,1.62
2019-05-11T16:10:45.583Z,1.40
2019-05-11T16:13:13.361Z,1.85
2019-05-11T16:15:41.090Z,1.20
2019-05-11T16:18:09.389Z,1.55
2019-05-11T16:20:37.094Z,1.37
2019-05-11T16:23:04.923Z,1.60
2019-05-11T16:25:32.643Z,1.57
2019-05-11T16:28:00.516Z,1.50
2019-05-11T16:30:28.780Z,1.70
2019-05-11T16:32:58.069Z,1.72
2019-05-11T16:35:27.968Z,1.90
2019-05-11T16:37:55.592Z,2.20
2019-05-11T16:40:23.307Z,2.50
2019-05-11T16:42:51.194Z,2.10
2019-05-11T16:45:19.462Z,2.67
2019-05-11T16:47:48.265Z,2.30
2019-05-11T16:50:18.026Z,3.00
2019-05-11T16:52:48.137Z,3.40
2019-05-11T16:55:18.191Z,3.33
2019-05-11T16:57:48.013Z,4.08
2019-05-11T17:00:15.410Z,4.03
2019-05-11T17:02:43.534Z,4.80
2019-05-11T17:05:25.344Z,4.65
2019-05-11T17:07:41.115Z,4.60
2019-05-11T17:10:09.617Z,5.20
2019-05-11T17:12:38.531Z,5.33
2019-05-11T17:15:08.851Z,5.17
2019-05-11T17:17:36.974Z,5.95
2019-05-11T17:20:05.195Z,5.08
2019-05-11T17:22:34.489Z,5.55
2019-05-11T17:25:02.461Z,6.10
2019-05-11T17:27:31.828Z,5.60
2019-05-11T17:29:59.696Z,6.15
2019-05-11T17:32:29.330Z,6.40
2019-05-11T17:34:58.138Z,5.87
2019-05-11T17:37:28.384Z,6.00
2019-05-11T17:39:55.735Z,5.03
2019-05-11T17:42:23.444Z,5.17
2019-05-11T17:44:51.259Z,5.40
2019-05-11T17:47:19.034Z,5.45
2019-05-11T17:49:59.117Z,4.92
2019-05-11T17:52:18.839Z,4.30
2019-05-11T17:54:47.752Z,3.90
2019-05-11T17:57:15.831Z,4.72
2019-05-11T17:59:43.741Z,3.65
2019-05-11T18:02:11.523Z,3.72
2019-05-11T18:04:39.804Z,3.20
2019-05-11T18:07:07.683Z,3.40
2019-05-11T18:09:35.508Z,3.58
2019-05-11T18:12:03.365Z,3.12
2019-05-11T18:14:31.222Z,2.87
2019-05-11T18:16:59.131Z,2.90
2019-05-11T18:19:27.646Z,3.00
2019-05-11T18:21:57.644Z,2.87
2019-05-11T18:24:25.258Z,3.40
2019-05-11T18:26:53.064Z,4.15
2019-05-11T18:29:20.821Z,3.33
2019-05-11T18:31:48.732Z,3.35
2019-05-11T18:34:17.846Z,3.30
2019-05-11T18:36:45.874Z,3.30
2019-05-11T18:39:13.622Z,3.20
2019-05-11T18:41:41.414Z,3.40
2019-05-11T18:44:09.202Z,3.37
2019-05-11T18:46:38.909Z,3.30
2019-05-11T18:49:06.797Z,3.67
2019-05-11T18:51:34.633Z,3.50
2019-05-11T18:54:02.394Z,3.42
2019-05-11T18:56:30.350Z,4.00
2019-05-11T18:58:58.410Z,4.40
2019-05-11T19:01:28.424Z,4.03
2019-05-11T19:03:56.011Z,4.60
2019-05-11T19:06:23.721Z,4.60
2019-05-11T19:08:51.549Z,4.50
2019-05-11T19:11:19.309Z,6.25
2019-05-11T19:13:47.807Z,5.97
2019-05-11T19:16:15.653Z,6.47
2019-05-11T19:18:43.502Z,6.40
2019-05-11T19:21:11.238Z,5.60
2019-05-11T19:23:39.054Z,5.80
2019-05-11T19:26:08.353Z,6.10
2019-05-11T19:28:38.442Z,5.92
2019-05-11T19:31:10.874Z,7.03
2019-05-11T19:33:38.122Z,6.10
2019-05-11T19:36:07.772Z,7.12
2019-05-11T19:38:35.602Z,7.25
2019-05-11T19:41:03.374Z,6.97
2019-05-11T19:43:31.300Z,6.85
2019-05-11T19:45:59.117Z,6.72
2019-05-11T19:48:27.998Z,7.08
2019-05-11T19:51:04.650Z,6.62
2019-05-11T19:53:28.098Z,7.22
2019-05-11T19:55:58.214Z,8.40
2019-05-11T19:58:26.011Z,5.90
2019-05-11T20:00:53.918Z,7.30
2019-05-11T20:03:21.666Z,7.50
2019-05-11T20:05:49.487Z,7.05
2019-05-11T20:08:18.463Z,6.33
2019-05-11T20:10:48.596Z,7.78
2019-05-11T20:13:17.953Z,7.75
2019-05-11T20:15:48.324Z,7.12
2019-05-11T20:21:15.549Z,7.90
2019-05-11T20:23:33.196Z,7.10
2019-05-11T20:26:01.043Z,6.70
2019-05-11T20:28:28.818Z,6.45
2019-05-11T20:30:58.698Z,6.33
2019-05-11T20:33:27.944Z,6.70
2019-05-11T20:35:57.943Z,6.97
2019-05-11T20:38:27.931Z,6.80
2019-05-11T20:40:57.762Z,6.42
2019-05-11T20:43:28.011Z,6.00
2019-05-11T20:45:56.350Z,6.53
2019-05-11T20:48:24.186Z,6.42
2019-05-11T20:50:52.045Z,6.37
2019-05-11T20:53:19.902Z,6.10
2019-05-11T20:55:48.049Z,6.20
2019-05-11T20:58:18.994Z,5.00
2019-05-11T21:00:45.864Z,5.40
2019-05-11T21:03:13.650Z,5.60
2019-05-11T21:05:41.384Z,5.25
2019-05-11T21:08:09.257Z,4.80
2019-05-11T21:10:38.573Z,5.20
2019-05-11T21:13:08.618Z,5.03
2019-05-11T21:15:38.323Z,5.22
2019-05-11T21:18:07.876Z,5.20
2019-05-11T21:20:37.952Z,4.78
2019-05-11T21:23:05.407Z,5.53
2019-05-11T21:25:33.149Z,5.10
2019-05-11T21:28:01.104Z,6.85
2019-05-11T21:30:28.893Z,4.72
2019-05-11T21:32:58.209Z,4.70
2019-05-11T21:35:28.105Z,4.83
2019-05-11T21:37:57.982Z,4.25
2019-05-11T21:40:25.962Z,4.45
2019-05-11T21:42:53.760Z,4.72
2019-05-11T21:45:21.662Z,4.70
2019-05-11T21:47:49.498Z,5.30
2019-05-11T21:50:19.033Z,4.60
2019-05-11T21:52:48.400Z,4.35
2019-05-11T21:55:16.399Z,4.50
2019-05-11T21:57:44.299Z,4.80
2019-05-11T22:00:12.461Z,4.92
2019-05-11T22:02:40.755Z,4.08
2019-05-11T22:05:09.002Z,4.08
2019-05-11T22:07:41.374Z,3.80
2019-05-11T22:10:08.885Z,3.80
2019-05-11T22:12:38.995Z,3.80
2019-05-11T22:15:09.301Z,4.30
2019-05-11T22:17:39.312Z,4.83
2019-05-11T22:20:07.732Z,4.55
2019-05-11T22:22:35.658Z,4.67
2019-05-11T22:25:03.610Z,5.05
2019-05-11T22:27:31.848Z,5.60
2019-05-11T22:29:59.670Z,5.30
2019-05-11T22:32:28.519Z,5.40
2019-05-11T22:34:58.241Z,6.25
2019-05-11T22:37:27.738Z,7.03
2019-05-11T22:39:57.751Z,7.00
2019-05-11T22:42:28.167Z,7.83
2019-05-11T22:44:56.111Z,8.25
2019-05-11T22:47:23.862Z,7.40
2019-05-11T22:49:54.373Z,7.80
2019-05-11T22:52:33.053Z,8.15
2019-05-11T22:54:51.798Z,7.40
2019-05-11T22:57:19.757Z,8.30
2019-05-11T22:59:47.608Z,7.58
2019-05-11T23:02:15.367Z,8.48
2019-05-11T23:04:43.411Z,9.48
2019-05-11T23:07:11.218Z,8.85
2019-05-11T23:09:39.094Z,8.55
2019-05-11T23:12:09.029Z,7.60
2019-05-11T23:14:37.688Z,8.00
2019-05-11T23:17:07.933Z,7.55
2019-05-11T23:19:35.278Z,7.90
2019-05-11T23:22:05.433Z,7.58
2019-05-11T23:24:32.954Z,8.28
2019-05-11T23:27:00.800Z,8.00
2019-05-11T23:29:28.522Z,7.30
2019-05-11T23:31:58.240Z,8.08
2019-05-11T23:34:28.100Z,7.30
2019-05-11T23:36:55.748Z,7.70
2019-05-11T23:39:23.595Z,7.67
2019-05-11T23:41:51.438Z,6.80
2019-05-11T23:44:19.216Z,7.15
2019-05-11T23:46:47.848Z,7.60
2019-05-11T23:49:17.764Z,6.72
2019-05-11T23:51:47.687Z,7.15
2019-05-11T23:54:15.031Z,7.30
2019-05-11T23:56:42.894Z,7.40
2019-05-11T23:59:10.611Z,7.33
